Terminal Aerodrome Forecast
Issued by NWS

Home | Current Version | Previous Version | Text Only | Print | Product List | Glossary On
Versions: 1 2 3 4 5 6 7 8 9 10 11 12 13
000
FTUS45 KRIW 010500
TAFBPI
TAF
KBPI 010525Z 0106/0206 18006KT P6SM BKN050
     FM011700 VRB05KT P6SM SCT050 SCT080
     FM020200 VRB04KT P6SM BKN070=

USA.gov is the U.S. government's official web portal to all federal, state and local government web resources and services.